sensor_id;sensor_type;location;lat;lon;timestamp;pressure;altitude;pressure_sealevel;temperature;humidity
70248;BME280;57641;51.416;5.506;2022-12-18T00:01:24;102943.44;;;1.06;53.41
70248;BME280;57641;51.416;5.506;2022-12-18T00:03:50;102950.41;;;1.08;52.33
70248;BME280;57641;51.416;5.506;2022-12-18T00:06:21;102947.97;;;1.01;51.91
70248;BME280;57641;51.416;5.506;2022-12-18T00:08:47;102949.84;;;0.96;52.09
70248;BME280;57641;51.416;5.506;2022-12-18T00:11:22;102946.41;;;0.95;52.73
70248;BME280;57641;51.416;5.506;2022-12-18T00:13:48;102941.19;;;0.92;52.58
70248;BME280;57641;51.416;5.506;2022-12-18T00:16:16;102952.59;;;0.91;53.57
70248;BME280;57641;51.416;5.506;2022-12-18T00:18:42;102955.19;;;0.93;53.05
70248;BME280;57641;51.416;5.506;2022-12-18T00:21:09;102949.06;;;0.94;52.56
70248;BME280;57641;51.416;5.506;2022-12-18T00:23:36;102943.09;;;0.87;52.14
70248;BME280;57641;51.416;5.506;2022-12-18T00:26:04;102943.06;;;0.89;52.96
70248;BME280;57641;51.416;5.506;2022-12-18T00:28:30;102929.19;;;0.83;52.42
70248;BME280;57641;51.416;5.506;2022-12-18T00:31:04;102929.34;;;0.77;52.07
70248;BME280;57641;51.416;5.506;2022-12-18T00:33:30;102920.69;;;0.74;52.53
70248;BME280;57641;51.416;5.506;2022-12-18T00:36:01;102911.97;;;0.73;52.09
70248;BME280;57641;51.416;5.506;2022-12-18T00:38:30;102913.78;;;0.70;52.40
70248;BME280;57641;51.416;5.506;2022-12-18T00:40:59;102913.38;;;0.53;51.79
70248;BME280;57641;51.416;5.506;2022-12-18T00:43:25;102906.78;;;0.36;52.68
70248;BME280;57641;51.416;5.506;2022-12-18T00:45:50;102912.94;;;0.34;51.99
70248;BME280;57641;51.416;5.506;2022-12-18T00:48:16;102912.97;;;0.32;51.51
70248;BME280;57641;51.416;5.506;2022-12-18T00:50:44;102913.09;;;0.28;51.96
70248;BME280;57641;51.416;5.506;2022-12-18T00:53:10;102904.41;;;0.26;52.77
70248;BME280;57641;51.416;5.506;2022-12-18T00:55:43;102907.09;;;0.23;52.19
70248;BME280;57641;51.416;5.506;2022-12-18T00:58:10;102914.91;;;0.26;52.66
70248;BME280;57641;51.416;5.506;2022-12-18T01:00:42;102909.66;;;0.26;52.46
70248;BME280;57641;51.416;5.506;2022-12-18T01:03:10;102907.97;;;0.23;51.78
70248;BME280;57641;51.416;5.506;2022-12-18T01:05:40;102919.31;;;0.24;51.64
70248;BME280;57641;51.416;5.506;2022-12-18T01:08:06;102926.28;;;0.25;52.34
70248;BME280;57641;51.416;5.506;2022-12-18T01:10:34;102920.16;;;0.26;51.87
70248;BME280;57641;51.416;5.506;2022-12-18T01:13:00;102922.81;;;0.24;52.28
70248;BME280;57641;51.416;5.506;2022-12-18T01:15:28;102935.91;;;0.24;51.65
70248;BME280;57641;51.416;5.506;2022-12-18T01:17:54;102935.06;;;0.24;52.67
70248;BME280;57641;51.416;5.506;2022-12-18T01:20:19;102932.44;;;0.24;51.14
70248;BME280;57641;51.416;5.506;2022-12-18T01:22:45;102936.03;;;0.20;51.92
70248;BME280;57641;51.416;5.506;2022-12-18T01:25:11;102937.78;;;0.21;52.54
70248;BME280;57641;51.416;5.506;2022-12-18T01:27:36;102930.78;;;0.20;51.91
70248;BME280;57641;51.416;5.506;2022-12-18T01:30:22;102925.91;;;0.05;50.61
70248;BME280;57641;51.416;5.506;2022-12-18T01:32:47;102924.19;;;0.02;51.89
70248;BME280;57641;51.416;5.506;2022-12-18T01:35:12;102925.06;;;0.03;51.96
70248;BME280;57641;51.416;5.506;2022-12-18T01:37:38;102929.41;;;0.04;51.75
70248;BME280;57641;51.416;5.506;2022-12-18T01:40:05;102925.97;;;0.02;52.14
70248;BME280;57641;51.416;5.506;2022-12-18T01:42:30;102924.19;;;0.02;51.34
70248;BME280;57641;51.416;5.506;2022-12-18T01:55:40;102916.84;;;-0.21;52.32
70248;BME280;57641;51.416;5.506;2022-12-18T01:58:08;102918.56;;;-0.18;51.42
70248;BME280;57641;51.416;5.506;2022-12-18T02:00:34;102920.22;;;-0.16;51.11
70248;BME280;57641;51.416;5.506;2022-12-18T02:02:59;102921.16;;;-0.17;51.41
70248;BME280;57641;51.416;5.506;2022-12-18T02:05:33;102917.59;;;-0.16;52.17
70248;BME280;57641;51.416;5.506;2022-12-18T02:08:26;102920.22;;;-0.16;51.93
70248;BME280;57641;51.416;5.506;2022-12-18T02:18:49;102906.69;;;-0.36;51.66
70248;BME280;57641;51.416;5.506;2022-12-18T02:24:37;102906.88;;;-0.44;51.73
70248;BME280;57641;51.416;5.506;2022-12-18T02:27:09;102915.63;;;-0.45;52.08
70248;BME280;57641;51.416;5.506;2022-12-18T02:29:48;102906.81;;;-0.40;51.77
70248;BME280;57641;51.416;5.506;2022-12-18T02:32:22;102908.63;;;-0.43;51.59
70248;BME280;57641;51.416;5.506;2022-12-18T02:34:54;102905.91;;;-0.39;52.16
70248;BME280;57641;51.416;5.506;2022-12-18T02:37:21;102898.91;;;-0.39;51.38
70248;BME280;57641;51.416;5.506;2022-12-18T02:39:53;102898.06;;;-0.39;51.70
70248;BME280;57641;51.416;5.506;2022-12-18T02:42:21;102900.66;;;-0.38;51.27
70248;BME280;57641;51.416;5.506;2022-12-18T02:44:50;102897.09;;;-0.37;51.81
70248;BME280;57641;51.416;5.506;2022-12-18T02:47:23;102898.91;;;-0.37;51.62
70248;BME280;57641;51.416;5.506;2022-12-18T02:58:44;102875.59;;;-0.51;52.01
70248;BME280;57641;51.416;5.506;2022-12-18T03:01:41;102877.41;;;-0.53;52.03
70248;BME280;57641;51.416;5.506;2022-12-18T03:07:17;102883.47;;;-0.53;52.26
70248;BME280;57641;51.416;5.506;2022-12-18T03:09:47;102868.69;;;-0.55;52.51
70248;BME280;57641;51.416;5.506;2022-12-18T03:12:22;102859.00;;;-0.52;51.49
70248;BME280;57641;51.416;5.506;2022-12-18T03:17:34;102865.22;;;-0.56;51.63
70248;BME280;57641;51.416;5.506;2022-12-18T03:20:10;102859.09;;;-0.55;51.97
70248;BME280;57641;51.416;5.506;2022-12-18T03:22:37;102861.63;;;-0.52;51.94
70248;BME280;57641;51.416;5.506;2022-12-18T03:25:07;102862.50;;;-0.51;52.38
70248;BME280;57641;51.416;5.506;2022-12-18T03:27:37;102855.34;;;-0.43;52.72
70248;BME280;57641;51.416;5.506;2022-12-18T03:30:08;102861.38;;;-0.39;52.51
70248;BME280;57641;51.416;5.506;2022-12-18T03:32:58;102861.28;;;-0.36;53.43
70248;BME280;57641;51.416;5.506;2022-12-18T03:35:30;102861.34;;;-0.38;52.74
70248;BME280;57641;51.416;5.506;2022-12-18T03:37:57;102872.50;;;-0.30;52.77
70248;BME280;57641;51.416;5.506;2022-12-18T03:43:43;102873.38;;;-0.29;52.80
70248;BME280;57641;51.416;5.506;2022-12-18T03:46:24;102867.47;;;-0.39;52.20
70248;BME280;57641;51.416;5.506;2022-12-18T03:48:59;102867.38;;;-0.34;52.84
70248;BME280;57641;51.416;5.506;2022-12-18T03:51:32;102874.34;;;-0.33;52.92
70248;BME280;57641;51.416;5.506;2022-12-18T03:54:02;102865.59;;;-0.32;52.74
70248;BME280;57641;51.416;5.506;2022-12-18T03:56:32;102864.63;;;-0.28;53.23
70248;BME280;57641;51.416;5.506;2022-12-18T03:59:02;102853.25;;;-0.29;51.84
70248;BME280;57641;51.416;5.506;2022-12-18T04:01:35;102840.19;;;-0.30;51.95
70248;BME280;57641;51.416;5.506;2022-12-18T04:04:04;102842.88;;;-0.33;52.93
70248;BME280;57641;51.416;5.506;2022-12-18T04:06:35;102829.69;;;-0.30;52.33
70248;BME280;57641;51.416;5.506;2022-12-18T04:09:02;102828.03;;;-0.33;52.90
70248;BME280;57641;51.416;5.506;2022-12-18T04:11:28;102825.31;;;-0.30;52.21
70248;BME280;57641;51.416;5.506;2022-12-18T04:14:00;102816.56;;;-0.29;52.32
70248;BME280;57641;51.416;5.506;2022-12-18T04:16:26;102807.84;;;-0.29;53.08
70248;BME280;57641;51.416;5.506;2022-12-18T04:18:52;102805.13;;;-0.26;53.86
70248;BME280;57641;51.416;5.506;2022-12-18T04:21:18;102820.72;;;-0.20;53.35
70248;BME280;57641;51.416;5.506;2022-12-18T04:23:44;102811.91;;;-0.16;52.67
70248;BME280;57641;51.416;5.506;2022-12-18T04:26:10;102804.84;;;-0.14;53.63
70248;BME280;57641;51.416;5.506;2022-12-18T04:28:35;102811.84;;;-0.15;52.99
70248;BME280;57641;51.416;5.506;2022-12-18T04:31:10;102812.66;;;-0.11;53.23
70248;BME280;57641;51.416;5.506;2022-12-18T04:33:36;102805.69;;;-0.12;52.96
70248;BME280;57641;51.416;5.506;2022-12-18T04:36:01;102817.94;;;-0.13;53.06
70248;BME280;57641;51.416;5.506;2022-12-18T04:38:27;102820.59;;;-0.14;53.32
70248;BME280;57641;51.416;5.506;2022-12-18T04:40:52;102820.53;;;-0.11;52.77
70248;BME280;57641;51.416;5.506;2022-12-18T04:43:18;102821.41;;;-0.12;53.08
70248;BME280;57641;51.416;5.506;2022-12-18T04:45:43;102823.19;;;-0.14;53.17
70248;BME280;57641;51.416;5.506;2022-12-18T04:48:08;102828.41;;;-0.11;53.36
70248;BME280;57641;51.416;5.506;2022-12-18T04:50:34;102832.81;;;-0.13;52.87
70248;BME280;57641;51.416;5.506;2022-12-18T04:53:00;102833.72;;;-0.16;52.45
70248;BME280;57641;51.416;5.506;2022-12-18T04:55:28;102837.19;;;-0.14;53.14
70248;BME280;57641;51.416;5.506;2022-12-18T04:57:53;102835.44;;;-0.15;53.50
70248;BME280;57641;51.416;5.506;2022-12-18T05:00:19;102841.66;;;-0.19;52.36
70248;BME280;57641;51.416;5.506;2022-12-18T05:02:45;102847.06;;;-0.26;52.22
70248;BME280;57641;51.416;5.506;2022-12-18T05:05:10;102847.16;;;-0.29;51.66
70248;BME280;57641;51.416;5.506;2022-12-18T05:07:36;102844.50;;;-0.28;51.84
70248;BME280;57641;51.416;5.506;2022-12-18T05:10:02;102845.41;;;-0.29;52.79
70248;BME280;57641;51.416;5.506;2022-12-18T05:12:28;102843.75;;;-0.33;51.54
70248;BME280;57641;51.416;5.506;2022-12-18T05:14:58;102852.50;;;-0.34;53.03
70248;BME280;57641;51.416;5.506;2022-12-18T05:17:23;102854.28;;;-0.36;52.12
70248;BME280;57641;51.416;5.506;2022-12-18T05:19:49;102859.59;;;-0.37;53.06
70248;BME280;57641;51.416;5.506;2022-12-18T05:22:14;102845.63;;;-0.38;52.85
70248;BME280;57641;51.416;5.506;2022-12-18T05:24:39;102847.44;;;-0.42;52.44
70248;BME280;57641;51.416;5.506;2022-12-18T05:27:05;102834.41;;;-0.45;52.53
70248;BME280;57641;51.416;5.506;2022-12-18T05:29:30;102840.66;;;-0.50;52.33
70248;BME280;57641;51.416;5.506;2022-12-18T05:31:56;102847.53;;;-0.46;52.45
70248;BME280;57641;51.416;5.506;2022-12-18T05:34:21;102839.69;;;-0.48;52.28
70248;BME280;57641;51.416;5.506;2022-12-18T05:36:47;102839.69;;;-0.48;52.45
70248;BME280;57641;51.416;5.506;2022-12-18T05:39:12;102834.50;;;-0.49;52.14
70248;BME280;57641;51.416;5.506;2022-12-18T05:41:40;102834.50;;;-0.49;52.28
70248;BME280;57641;51.416;5.506;2022-12-18T05:44:09;102827.56;;;-0.52;52.63
70248;BME280;57641;51.416;5.506;2022-12-18T05:46:34;102827.53;;;-0.49;51.87
70248;BME280;57641;51.416;5.506;2022-12-18T05:49:01;102823.16;;;-0.50;52.40
70248;BME280;57641;51.416;5.506;2022-12-18T05:51:27;102825.81;;;-0.51;52.32
70248;BME280;57641;51.416;5.506;2022-12-18T05:53:53;102826.69;;;-0.52;52.67
70248;BME280;57641;51.416;5.506;2022-12-18T05:56:20;102824.16;;;-0.55;52.46
70248;BME280;57641;51.416;5.506;2022-12-18T05:58:46;102824.03;;;-0.49;51.92
70248;BME280;57641;51.416;5.506;2022-12-18T06:01:18;102819.69;;;-0.50;53.06
70248;BME280;57641;51.416;5.506;2022-12-18T06:03:44;102823.28;;;-0.54;52.31
70248;BME280;57641;51.416;5.506;2022-12-18T06:06:26;102825.00;;;-0.53;52.28
70248;BME280;57641;51.416;5.506;2022-12-18T06:08:53;102817.34;;;-0.62;52.88
70248;BME280;57641;51.416;5.506;2022-12-18T06:11:21;102812.09;;;-0.62;53.00
70248;BME280;57641;51.416;5.506;2022-12-18T06:13:50;102811.28;;;-0.64;52.63
70248;BME280;57641;51.416;5.506;2022-12-18T06:16:16;102825.19;;;-0.62;53.15
70248;BME280;57641;51.416;5.506;2022-12-18T06:18:41;102826.78;;;-0.55;52.95
70248;BME280;57641;51.416;5.506;2022-12-18T06:21:07;102822.38;;;-0.53;53.29
70248;BME280;57641;51.416;5.506;2022-12-18T06:23:33;102822.31;;;-0.52;53.24
70248;BME280;57641;51.416;5.506;2022-12-18T06:26:04;102824.91;;;-0.49;52.73
70248;BME280;57641;51.416;5.506;2022-12-18T06:28:30;102830.13;;;-0.49;52.64
70248;BME280;57641;51.416;5.506;2022-12-18T06:30:56;102828.31;;;-0.47;53.30
70248;BME280;57641;51.416;5.506;2022-12-18T06:33:21;102819.53;;;-0.43;52.33
70248;BME280;57641;51.416;5.506;2022-12-18T06:35:47;102824.72;;;-0.41;53.18
70248;BME280;57641;51.416;5.506;2022-12-18T06:38:13;102822.09;;;-0.41;52.86
70248;BME280;57641;51.416;5.506;2022-12-18T06:40:38;102827.44;;;-0.46;52.89
70248;BME280;57641;51.416;5.506;2022-12-18T06:43:05;102824.03;;;-0.49;53.04
70248;BME280;57641;51.416;5.506;2022-12-18T06:45:31;102822.28;;;-0.49;52.95
70248;BME280;57641;51.416;5.506;2022-12-18T06:47:56;102823.19;;;-0.51;52.22
70248;BME280;57641;51.416;5.506;2022-12-18T06:50:22;102817.16;;;-0.53;52.32
70248;BME280;57641;51.416;5.506;2022-12-18T06:52:47;102819.78;;;-0.53;52.90
70248;BME280;57641;51.416;5.506;2022-12-18T06:55:12;102814.81;;;-0.67;51.61
70248;BME280;57641;51.416;5.506;2022-12-18T06:57:38;102816.53;;;-0.66;51.91
70248;BME280;57641;51.416;5.506;2022-12-18T07:00:05;102808.75;;;-0.69;52.61
70248;BME280;57641;51.416;5.506;2022-12-18T07:02:32;102802.91;;;-0.80;52.52
70248;BME280;57641;51.416;5.506;2022-12-18T07:04:58;102811.53;;;-0.76;52.46
70248;BME280;57641;51.416;5.506;2022-12-18T07:07:23;102811.53;;;-0.76;52.79
70248;BME280;57641;51.416;5.506;2022-12-18T07:09:50;102805.34;;;-0.74;52.52
70248;BME280;57641;51.416;5.506;2022-12-18T07:12:16;102800.97;;;-0.72;53.08
70248;BME280;57641;51.416;5.506;2022-12-18T07:14:45;102795.69;;;-0.70;51.93
70248;BME280;57641;51.416;5.506;2022-12-18T07:17:11;102799.19;;;-0.71;52.41
70248;BME280;57641;51.416;5.506;2022-12-18T07:19:36;102792.25;;;-0.72;52.75
70248;BME280;57641;51.416;5.506;2022-12-18T07:22:01;102787.84;;;-0.70;52.89
70248;BME280;57641;51.416;5.506;2022-12-18T07:24:27;102774.75;;;-0.70;53.19
70248;BME280;57641;51.416;5.506;2022-12-18T07:26:53;102771.25;;;-0.71;52.21
70248;BME280;57641;51.416;5.506;2022-12-18T07:29:19;102748.59;;;-0.72;52.87
70248;BME280;57641;51.416;5.506;2022-12-18T07:31:44;102745.97;;;-0.72;52.76
70248;BME280;57641;51.416;5.506;2022-12-18T07:34:11;102742.44;;;-0.71;53.04
70248;BME280;57641;51.416;5.506;2022-12-18T07:36:37;102740.59;;;-0.66;53.48
70248;BME280;57641;51.416;5.506;2022-12-18T07:39:02;102747.47;;;-0.62;53.21
70248;BME280;57641;51.416;5.506;2022-12-18T07:41:28;102746.56;;;-0.59;52.98
70248;BME280;57641;51.416;5.506;2022-12-18T07:43:53;102753.44;;;-0.55;53.95
70248;BME280;57641;51.416;5.506;2022-12-18T07:46:19;102746.31;;;-0.50;53.29
70248;BME280;57641;51.416;5.506;2022-12-18T07:48:44;102737.53;;;-0.48;54.23
70248;BME280;57641;51.416;5.506;2022-12-18T07:51:10;102730.47;;;-0.44;54.32
70248;BME280;57641;51.416;5.506;2022-12-18T07:53:36;102712.91;;;-0.40;54.20
70248;BME280;57641;51.416;5.506;2022-12-18T07:56:10;102715.47;;;-0.37;54.53
70248;BME280;57641;51.416;5.506;2022-12-18T07:58:37;102709.28;;;-0.35;54.15
70248;BME280;57641;51.416;5.506;2022-12-18T08:01:07;102710.00;;;-0.30;54.24
70248;BME280;57641;51.416;5.506;2022-12-18T08:03:33;102704.66;;;-0.25;55.04
70248;BME280;57641;51.416;5.506;2022-12-18T08:06:07;102708.84;;;-0.18;55.15
70248;BME280;57641;51.416;5.506;2022-12-18T08:08:34;102720.16;;;-0.16;54.13
70248;BME280;57641;51.416;5.506;2022-12-18T08:10:59;102709.59;;;-0.13;54.40
70248;BME280;57641;51.416;5.506;2022-12-18T08:13:26;102719.94;;;-0.07;55.10
70248;BME280;57641;51.416;5.506;2022-12-18T08:16:00;102718.94;;;-0.03;55.28
70248;BME280;57641;51.416;5.506;2022-12-18T08:18:26;102717.22;;;-0.04;55.79
70248;BME280;57641;51.416;5.506;2022-12-18T08:20:51;102707.44;;;0.03;55.23
70248;BME280;57641;51.416;5.506;2022-12-18T08:23:17;102717.03;;;0.04;55.50
70248;BME280;57641;51.416;5.506;2022-12-18T08:25:42;102722.09;;;0.10;54.89
70248;BME280;57641;51.416;5.506;2022-12-18T08:28:09;102722.88;;;0.13;54.81
70248;BME280;57641;51.416;5.506;2022-12-18T08:30:35;102726.34;;;0.15;55.28
70248;BME280;57641;51.416;5.506;2022-12-18T08:33:00;102716.66;;;0.17;55.97
70248;BME280;57641;51.416;5.506;2022-12-18T08:35:29;102721.69;;;0.25;55.24
70248;BME280;57641;51.416;5.506;2022-12-18T08:37:57;102727.56;;;0.33;55.78
70248;BME280;57641;51.416;5.506;2022-12-18T08:40:23;102733.53;;;0.39;56.09
70248;BME280;57641;51.416;5.506;2022-12-18T08:42:48;102728.28;;;0.39;56.16
70248;BME280;57641;51.416;5.506;2022-12-18T08:45:33;102716.06;;;0.38;56.10
70248;BME280;57641;51.416;5.506;2022-12-18T08:47:59;102706.34;;;0.42;55.86
70248;BME280;57641;51.416;5.506;2022-12-18T08:50:30;102696.59;;;0.47;56.04
70248;BME280;57641;51.416;5.506;2022-12-18T08:52:56;102683.28;;;0.53;56.36
70248;BME280;57641;51.416;5.506;2022-12-18T08:55:21;102690.09;;;0.59;55.68
70248;BME280;57641;51.416;5.506;2022-12-18T08:57:50;102696.00;;;0.67;56.19
70248;BME280;57641;51.416;5.506;2022-12-18T09:00:16;102707.19;;;0.73;55.46
70248;BME280;57641;51.416;5.506;2022-12-18T09:02:42;102691.44;;;0.73;55.13
70248;BME280;57641;51.416;5.506;2022-12-18T09:05:07;102686.06;;;0.78;55.13
70248;BME280;57641;51.416;5.506;2022-12-18T09:07:33;102678.97;;;0.80;56.71
70248;BME280;57641;51.416;5.506;2022-12-18T09:09:58;102683.25;;;0.84;55.33
70248;BME280;57641;51.416;5.506;2022-12-18T09:12:24;102702.44;;;0.86;56.16
70248;BME280;57641;51.416;5.506;2022-12-18T09:14:50;102705.69;;;0.94;56.25
70248;BME280;57641;51.416;5.506;2022-12-18T09:17:18;102708.19;;;0.99;55.89
70248;BME280;57641;51.416;5.506;2022-12-18T09:19:43;102709.75;;;1.04;56.65
70248;BME280;57641;51.416;5.506;2022-12-18T09:22:09;102707.88;;;1.08;56.38
70248;BME280;57641;51.416;5.506;2022-12-18T09:24:35;102713.84;;;1.13;55.68
70248;BME280;57641;51.416;5.506;2022-12-18T09:27:00;102725.13;;;1.16;55.82
70248;BME280;57641;51.416;5.506;2022-12-18T09:29:26;102713.78;;;1.16;56.36
70248;BME280;57641;51.416;5.506;2022-12-18T09:31:51;102706.47;;;1.25;55.94
70248;BME280;57641;51.416;5.506;2022-12-18T09:34:17;102698.47;;;1.28;56.16
70248;BME280;57641;51.416;5.506;2022-12-18T09:36:42;102704.44;;;1.34;56.41
70248;BME280;57641;51.416;5.506;2022-12-18T09:39:08;102693.84;;;1.37;55.96
70248;BME280;57641;51.416;5.506;2022-12-18T09:41:42;102693.59;;;1.44;56.51
70248;BME280;57641;51.416;5.506;2022-12-18T09:47:16;102699.75;;;1.43;55.78
70248;BME280;57641;51.416;5.506;2022-12-18T09:49:46;102697.03;;;1.46;55.89
70248;BME280;57641;51.416;5.506;2022-12-18T09:52:21;102692.38;;;1.54;56.65
70248;BME280;57641;51.416;5.506;2022-12-18T09:57:44;102672.72;;;1.66;56.90
70248;BME280;57641;51.416;5.506;2022-12-18T10:00:22;102662.84;;;1.73;55.74
70248;BME280;57641;51.416;5.506;2022-12-18T10:02:50;102664.38;;;1.80;56.06
70248;BME280;57641;51.416;5.506;2022-12-18T10:05:36;102672.31;;;1.78;56.70
70248;BME280;57641;51.416;5.506;2022-12-18T10:10:51;102666.06;;;1.81;57.09
70248;BME280;57641;51.416;5.506;2022-12-18T10:18:51;102677.78;;;1.97;57.12
70248;BME280;57641;51.416;5.506;2022-12-18T10:21:51;102667.00;;;2.04;56.79
70248;BME280;57641;51.416;5.506;2022-12-18T10:26:42;102662.03;;;2.20;55.74
70248;BME280;57641;51.416;5.506;2022-12-18T10:29:12;102657.56;;;2.22;56.84
70248;BME280;57641;51.416;5.506;2022-12-18T10:31:37;102649.28;;;2.33;56.82
70248;BME280;57641;51.416;5.506;2022-12-18T10:34:03;102650.81;;;2.38;56.39
70248;BME280;57641;51.416;5.506;2022-12-18T10:36:28;102642.66;;;2.46;56.93
70248;BME280;57641;51.416;5.506;2022-12-18T10:39:14;102636.19;;;2.54;56.56
70248;BME280;57641;51.416;5.506;2022-12-18T10:41:40;102625.56;;;2.58;56.05
70248;BME280;57641;51.416;5.506;2022-12-18T10:44:12;102624.69;;;2.57;55.94
70248;BME280;57641;51.416;5.506;2022-12-18T10:46:45;102614.84;;;2.62;55.63
70248;BME280;57641;51.416;5.506;2022-12-18T10:49:26;102615.50;;;2.67;56.29
70248;BME280;57641;51.416;5.506;2022-12-18T10:52:14;102621.59;;;2.69;56.69
70248;BME280;57641;51.416;5.506;2022-12-18T10:54:57;102615.38;;;2.70;56.06
70248;BME280;57641;51.416;5.506;2022-12-18T10:57:34;102608.59;;;2.86;55.99
70248;BME280;57641;51.416;5.506;2022-12-18T11:00:25;102601.75;;;2.82;56.43
70248;BME280;57641;51.416;5.506;2022-12-18T11:02:52;102594.50;;;2.87;56.53
70248;BME280;57641;51.416;5.506;2022-12-18T11:05:27;102592.44;;;2.95;56.26
70248;BME280;57641;51.416;5.506;2022-12-18T11:07:53;102580.25;;;2.93;56.46
70248;BME280;57641;51.416;5.506;2022-12-18T11:10:21;102578.41;;;2.95;55.91
70248;BME280;57641;51.416;5.506;2022-12-18T11:12:47;102576.19;;;3.06;56.56
70248;BME280;57641;51.416;5.506;2022-12-18T11:15:33;102592.13;;;3.03;56.76
70248;BME280;57641;51.416;5.506;2022-12-18T11:18:00;102591.06;;;3.07;56.25
70248;BME280;57641;51.416;5.506;2022-12-18T11:20:34;102589.03;;;3.14;56.95
70248;BME280;57641;51.416;5.506;2022-12-18T11:23:10;102588.00;;;3.18;56.13
70248;BME280;57641;51.416;5.506;2022-12-18T11:25:37;102578.25;;;3.20;56.49
70248;BME280;57641;51.416;5.506;2022-12-18T11:28:27;102572.69;;;3.27;56.44
70248;BME280;57641;51.416;5.506;2022-12-18T11:31:19;102566.34;;;3.31;56.47
70248;BME280;57641;51.416;5.506;2022-12-18T11:36:17;102545.78;;;3.39;56.67
70248;BME280;57641;51.416;5.506;2022-12-18T11:38:44;102557.78;;;3.47;56.16
70248;BME280;57641;51.416;5.506;2022-12-18T11:43:52;102555.00;;;3.50;55.27
70248;BME280;57641;51.416;5.506;2022-12-18T11:46:45;102546.81;;;3.56;55.58
70248;BME280;57641;51.416;5.506;2022-12-18T11:49:30;102544.13;;;3.57;56.06
70248;BME280;57641;51.416;5.506;2022-12-18T11:52:29;102555.47;;;3.59;55.95
70248;BME280;57641;51.416;5.506;2022-12-18T11:55:21;102544.13;;;3.57;55.63
70248;BME280;57641;51.416;5.506;2022-12-18T12:01:25;102528.97;;;3.62;55.35
70248;BME280;57641;51.416;5.506;2022-12-18T12:10:04;102533.97;;;3.68;55.95
70248;BME280;57641;51.416;5.506;2022-12-18T12:18:06;102504.09;;;3.87;55.75
70248;BME280;57641;51.416;5.506;2022-12-18T12:23:48;102512.50;;;3.96;54.23
70248;BME280;57641;51.416;5.506;2022-12-18T12:32:00;102503.22;;;4.06;54.43
70248;BME280;57641;51.416;5.506;2022-12-18T12:40:26;102487.66;;;4.00;54.63
70248;BME280;57641;51.416;5.506;2022-12-18T12:46:07;102478.66;;;4.04;54.44
70248;BME280;57641;51.416;5.506;2022-12-18T12:49:02;102474.03;;;4.09;54.52
70248;BME280;57641;51.416;5.506;2022-12-18T12:51:41;102460.59;;;4.14;53.98
70248;BME280;57641;51.416;5.506;2022-12-18T12:54:19;102463.81;;;4.20;54.25
70248;BME280;57641;51.416;5.506;2022-12-18T12:57:41;102461.88;;;4.24;53.45
70248;BME280;57641;51.416;5.506;2022-12-18T13:00:07;102455.75;;;4.23;54.10
70248;BME280;57641;51.416;5.506;2022-12-18T13:03:12;102449.41;;;4.28;53.57
70248;BME280;57641;51.416;5.506;2022-12-18T13:05:59;102443.28;;;4.27;53.11
70248;BME280;57641;51.416;5.506;2022-12-18T13:08:28;102449.41;;;4.28;53.36
70248;BME280;57641;51.416;5.506;2022-12-18T13:10:55;102440.34;;;4.33;53.16
70248;BME280;57641;51.416;5.506;2022-12-18T13:13:52;102439.47;;;4.33;53.03
70248;BME280;57641;51.416;5.506;2022-12-18T13:16:24;102432.47;;;4.32;52.85
70248;BME280;57641;51.416;5.506;2022-12-18T13:18:51;102423.88;;;4.28;52.58
70248;BME280;57641;51.416;5.506;2022-12-18T13:21:27;102426.13;;;4.36;52.92
70248;BME280;57641;51.416;5.506;2022-12-18T13:23:55;102425.03;;;4.40;53.11
70248;BME280;57641;51.416;5.506;2022-12-18T13:26:32;102426.63;;;4.44;52.33
70248;BME280;57641;51.416;5.506;2022-12-18T13:28:58;102423.13;;;4.43;51.76
70248;BME280;57641;51.416;5.506;2022-12-18T13:34:27;102418.59;;;4.45;51.83
70248;BME280;57641;51.416;5.506;2022-12-18T13:37:50;102424.81;;;4.44;52.21
70248;BME280;57641;51.416;5.506;2022-12-18T13:43:24;102415.19;;;4.43;52.05
70248;BME280;57641;51.416;5.506;2022-12-18T13:46:01;102420.09;;;4.51;52.38
70248;BME280;57641;51.416;5.506;2022-12-18T13:48:34;102419.00;;;4.55;52.52
70248;BME280;57641;51.416;5.506;2022-12-18T13:51:10;102403.94;;;4.57;52.41
70248;BME280;57641;51.416;5.506;2022-12-18T13:53:49;102399.44;;;4.59;52.10
70248;BME280;57641;51.416;5.506;2022-12-18T13:56:31;102401.78;;;4.65;52.17
70248;BME280;57641;51.416;5.506;2022-12-18T13:59:19;102398.91;;;4.70;52.08
70248;BME280;57641;51.416;5.506;2022-12-18T14:01:52;102398.19;;;4.66;52.16
70248;BME280;57641;51.416;5.506;2022-12-18T14:04:23;102395.47;;;4.67;51.60
70248;BME280;57641;51.416;5.506;2022-12-18T14:06:52;102405.88;;;4.71;51.41
70248;BME280;57641;51.416;5.506;2022-12-18T14:09:25;102404.00;;;4.73;51.43
70248;BME280;57641;51.416;5.506;2022-12-18T14:11:51;102399.34;;;4.78;51.35
70248;BME280;57641;51.416;5.506;2022-12-18T14:14:44;102395.72;;;4.80;51.36
70248;BME280;57641;51.416;5.506;2022-12-18T14:17:12;102393.06;;;4.80;51.53
70248;BME280;57641;51.416;5.506;2022-12-18T14:19:44;102406.19;;;4.82;51.52
70248;BME280;57641;51.416;5.506;2022-12-18T14:22:23;102404.41;;;4.82;50.60
70248;BME280;57641;51.416;5.506;2022-12-18T14:25:14;102391.28;;;4.81;51.25
70248;BME280;57641;51.416;5.506;2022-12-18T14:27:53;102386.31;;;4.75;50.92
70248;BME280;57641;51.416;5.506;2022-12-18T14:30:43;102391.50;;;4.76;51.26
70248;BME280;57641;51.416;5.506;2022-12-18T14:33:18;102389.88;;;4.74;51.25
70248;BME280;57641;51.416;5.506;2022-12-18T14:36:01;102392.34;;;4.77;51.31
70248;BME280;57641;51.416;5.506;2022-12-18T14:38:35;102396.88;;;4.75;51.33
70248;BME280;57641;51.416;5.506;2022-12-18T14:41:06;102391.44;;;4.78;52.13
70248;BME280;57641;51.416;5.506;2022-12-18T14:43:37;102389.56;;;4.80;51.95
70248;BME280;57641;51.416;5.506;2022-12-18T14:46:05;102391.28;;;4.81;51.36
70248;BME280;57641;51.416;5.506;2022-12-18T14:53:47;102379.00;;;4.80;50.91
70248;BME280;57641;51.416;5.506;2022-12-18T14:56:27;102378.91;;;4.81;51.81
70248;BME280;57641;51.416;5.506;2022-12-18T15:01:33;102386.69;;;4.84;51.32